createdAt,value
2018-08-21T00:00:58.357Z,63.31
2018-08-21T00:03:26.035Z,63.33
2018-08-21T00:05:53.663Z,64.05
2018-08-21T00:08:21.802Z,64.39
2018-08-21T00:10:49.682Z,64.62
2018-08-21T00:13:17.203Z,64.54
2018-08-21T00:15:44.782Z,65.11
2018-08-21T00:18:12.402Z,64.87
2018-08-21T00:20:41.159Z,65.10
2018-08-21T00:23:08.683Z,64.73
2018-08-21T00:25:36.211Z,64.85
2018-08-21T00:28:03.814Z,64.60
2018-08-21T00:30:37.792Z,65.00
2018-08-21T00:33:05.695Z,64.46
2018-08-21T00:35:38.242Z,64.89
2018-08-21T00:38:05.927Z,65.30
2018-08-21T00:40:33.504Z,64.79
2018-08-21T00:43:01.115Z,64.54
2018-08-21T00:45:28.670Z,65.05
2018-08-21T00:47:57.234Z,65.06
2018-08-21T00:50:24.803Z,65.46
2018-08-21T00:52:52.373Z,66.00
2018-08-21T00:55:19.926Z,65.58
2018-08-21T00:57:47.436Z,65.48
2018-08-21T01:00:15.228Z,66.60
2018-08-21T01:02:42.746Z,67.10
2018-08-21T01:05:10.307Z,66.67
2018-08-21T01:07:38.099Z,66.67
2018-08-21T01:10:05.722Z,66.85
2018-08-21T01:12:33.292Z,65.87
2018-08-21T01:15:00.858Z,67.07
2018-08-21T01:17:28.387Z,66.64
2018-08-21T01:19:55.973Z,66.95
2018-08-21T01:22:23.556Z,66.73
2018-08-21T01:24:51.111Z,67.36
2018-08-21T01:27:18.612Z,67.99
2018-08-21T01:29:46.439Z,67.71
2018-08-21T01:32:13.982Z,67.81
2018-08-21T01:34:41.530Z,67.26
2018-08-21T01:37:09.100Z,67.98
2018-08-21T01:39:36.634Z,68.06
2018-08-21T01:42:04.194Z,68.49
2018-08-21T01:44:31.712Z,68.91
2018-08-21T01:47:03.785Z,69.01
2018-08-21T01:49:31.314Z,68.95
2018-08-21T01:51:59.178Z,69.27
2018-08-21T01:54:26.680Z,69.59
2018-08-21T01:56:54.215Z,68.73
2018-08-21T01:59:21.763Z,68.07
2018-08-21T02:01:49.267Z,68.23
2018-08-21T02:04:16.809Z,68.50
2018-08-21T02:06:44.365Z,68.75
2018-08-21T02:09:12.990Z,68.92
2018-08-21T02:11:41.119Z,69.52
2018-08-21T02:14:09.438Z,68.77
2018-08-21T02:16:37.509Z,69.04
2018-08-21T02:19:05.117Z,69.29
2018-08-21T02:21:32.655Z,69.69
2018-08-21T02:24:00.195Z,68.65
2018-08-21T02:26:27.719Z,69.16
2018-08-21T02:28:55.249Z,70.13
2018-08-21T02:31:23.197Z,69.77
2018-08-21T02:33:50.798Z,69.44
2018-08-21T02:36:18.339Z,69.94
2018-08-21T02:38:45.887Z,70.26
2018-08-21T02:41:13.466Z,70.66
2018-08-21T02:43:41.037Z,70.90
2018-08-21T02:46:16.940Z,71.11
2018-08-21T02:48:46.024Z,70.75
2018-08-21T02:51:19.750Z,70.67
2018-08-21T02:53:47.486Z,71.31
2018-08-21T02:56:14.994Z,71.06
2018-08-21T02:58:42.526Z,71.52
2018-08-21T03:01:10.072Z,71.85
2018-08-21T03:03:37.623Z,71.33
2018-08-21T03:06:05.280Z,71.67
2018-08-21T03:08:32.994Z,71.46
2018-08-21T03:11:00.499Z,71.20
2018-08-21T03:13:28.046Z,71.21
2018-08-21T03:15:55.563Z,71.17
2018-08-21T03:18:23.242Z,71.01
2018-08-21T03:20:50.865Z,71.26
2018-08-21T03:23:18.374Z,70.52
2018-08-21T03:25:45.966Z,70.26
2018-08-21T03:28:13.511Z,70.32
2018-08-21T03:30:41.036Z,70.09
2018-08-21T03:33:08.866Z,69.66
2018-08-21T03:35:36.458Z,70.37
2018-08-21T03:38:03.978Z,69.80
2018-08-21T03:40:31.846Z,69.26
2018-08-21T03:42:59.378Z,69.49
2018-08-21T03:45:26.959Z,69.20
2018-08-21T03:47:55.615Z,69.21
2018-08-21T03:50:25.821Z,69.10
2018-08-21T03:52:53.322Z,69.08
2018-08-21T03:55:20.871Z,69.87
2018-08-21T03:57:48.393Z,69.03
2018-08-21T04:00:21.746Z,69.67
2018-08-21T04:02:49.257Z,69.51
2018-08-21T04:05:16.775Z,68.92
2018-08-21T04:07:44.837Z,68.82
2018-08-21T04:10:12.449Z,68.87
2018-08-21T04:12:39.955Z,68.91
2018-08-21T04:15:07.523Z,69.64
2018-08-21T04:17:35.034Z,69.19
2018-08-21T04:20:05.204Z,69.30
2018-08-21T04:22:34.942Z,69.29
2018-08-21T04:25:02.626Z,68.11
2018-08-21T04:27:33.859Z,68.72
2018-08-21T04:30:01.670Z,68.27
2018-08-21T04:32:29.288Z,69.01
2018-08-21T04:34:57.877Z,68.93
2018-08-21T04:37:26.106Z,69.31
2018-08-21T04:39:54.046Z,69.12
2018-08-21T04:42:21.555Z,68.92
2018-08-21T04:44:49.086Z,69.68
2018-08-21T04:47:25.644Z,70.06
2018-08-21T04:49:53.791Z,70.19
2018-08-21T04:52:21.309Z,69.49
2018-08-21T04:54:49.063Z,69.92
2018-08-21T04:57:16.573Z,69.47
2018-08-21T04:59:44.101Z,68.81
2018-08-21T05:02:11.914Z,68.33
2018-08-21T05:04:39.475Z,67.87
2018-08-21T05:07:07.909Z,67.91
2018-08-21T05:09:35.551Z,67.62
2018-08-21T05:12:03.339Z,67.97
2018-08-21T05:14:30.909Z,67.44
2018-08-21T05:16:58.454Z,67.17
2018-08-21T05:19:25.975Z,66.28
2018-08-21T05:21:53.520Z,65.40
2018-08-21T05:24:22.462Z,64.62
2018-08-21T05:26:49.978Z,64.08
2018-08-21T05:29:17.796Z,63.61
2018-08-21T05:31:45.307Z,63.06
2018-08-21T05:34:12.830Z,62.96
2018-08-21T05:36:41.640Z,62.00
2018-08-21T05:39:09.196Z,61.35
2018-08-21T05:41:36.783Z,60.82
2018-08-21T05:44:04.304Z,60.74
2018-08-21T05:46:31.837Z,59.95
2018-08-21T05:48:59.739Z,59.16
2018-08-21T05:51:27.291Z,58.33
2018-08-21T05:53:54.829Z,55.79
2018-08-21T05:56:22.362Z,56.10
2018-08-21T05:58:59.215Z,55.16
2018-08-21T06:01:32.478Z,55.99
2018-08-21T06:04:00.294Z,56.99
2018-08-21T06:06:27.827Z,56.52
2018-08-21T06:08:55.383Z,55.87
2018-08-21T06:11:22.951Z,55.85
2018-08-21T06:13:50.463Z,54.87
2018-08-21T06:16:18.046Z,54.38
2018-08-21T06:18:45.606Z,53.71
2018-08-21T06:21:13.202Z,54.18
2018-08-21T06:23:40.772Z,53.79
2018-08-21T06:26:08.347Z,53.15
2018-08-21T06:28:37.971Z,52.15
2018-08-21T06:31:06.449Z,49.50
2018-08-21T06:33:34.006Z,50.94
2018-08-21T06:36:02.815Z,49.56
2018-08-21T06:38:30.484Z,47.67
2018-08-21T06:40:58.081Z,47.86
2018-08-21T06:43:25.659Z,50.55
2018-08-21T06:46:10.330Z,50.17
2018-08-21T06:48:37.915Z,49.83
2018-08-21T06:51:05.536Z,48.97
2018-08-21T06:53:33.074Z,48.18
2018-08-21T06:56:00.611Z,47.18
2018-08-21T06:58:28.171Z,45.88
2018-08-21T07:01:01.440Z,45.25
2018-08-21T07:03:29.010Z,44.65
2018-08-21T07:05:56.558Z,43.62
2018-08-21T07:08:24.082Z,43.00
2018-08-21T07:10:51.626Z,41.81
2018-08-21T07:13:19.146Z,41.83
2018-08-21T07:15:46.683Z,40.96
2018-08-21T07:18:14.330Z,40.09
2018-08-21T07:20:41.846Z,39.56
2018-08-21T07:23:09.422Z,38.30
2018-08-21T07:25:42.568Z,37.62
2018-08-21T07:28:15.851Z,37.28
2018-08-21T07:30:53.035Z,35.79
2018-08-21T07:33:33.431Z,35.35
2018-08-21T07:36:00.938Z,35.49
2018-08-21T07:38:29.071Z,34.87
2018-08-21T07:40:58.027Z,34.82
2018-08-21T07:43:29.981Z,33.60
2018-08-21T07:46:07.469Z,32.93
2018-08-21T07:48:39.262Z,32.11
2018-08-21T07:51:07.094Z,30.69
2018-08-21T07:53:34.662Z,31.29
2018-08-21T07:56:02.177Z,30.67
2018-08-21T07:58:29.988Z,30.77
2018-08-21T08:00:57.531Z,30.49
2018-08-21T08:03:25.064Z,30.71
2018-08-21T08:05:52.615Z,29.26
2018-08-21T08:08:20.143Z,29.73
2018-08-21T08:10:47.667Z,29.28
2018-08-21T08:13:20.695Z,29.41
2018-08-21T08:15:48.209Z,29.10
2018-08-21T08:18:15.779Z,29.04
2018-08-21T08:20:43.345Z,28.07
2018-08-21T08:23:10.937Z,27.82
2018-08-21T08:25:38.474Z,28.33
2018-08-21T08:28:06.067Z,27.65
2018-08-21T08:30:33.594Z,27.36
2018-08-21T08:33:01.142Z,27.36
2018-08-21T08:35:28.763Z,27.08
2018-08-21T08:38:03.985Z,26.81
2018-08-21T08:40:35.167Z,26.16
2018-08-21T08:43:06.718Z,26.74
2018-08-21T08:45:48.218Z,26.56
2018-08-21T08:48:19.359Z,27.55
2018-08-21T08:50:47.501Z,26.36
2018-08-21T08:53:15.508Z,26.85
2018-08-21T08:55:50.484Z,26.16
2018-08-21T08:58:23.028Z,26.06
2018-08-21T09:01:22.712Z,25.54
2018-08-21T09:03:50.942Z,24.81
2018-08-21T09:06:24.394Z,25.13
2018-08-21T09:08:51.924Z,24.39
2018-08-21T09:11:19.490Z,23.78
2018-08-21T09:13:47.560Z,23.08
2018-08-21T09:16:15.083Z,23.36
2018-08-21T09:18:42.658Z,23.03
2018-08-21T09:21:10.179Z,23.93
2018-08-21T09:23:38.565Z,24.27
2018-08-21T09:26:07.430Z,23.09
2018-08-21T09:28:35.146Z,23.82
2018-08-21T09:31:02.694Z,23.81
2018-08-21T09:33:30.255Z,23.87
2018-08-21T09:35:57.782Z,22.97
2018-08-21T09:38:30.974Z,24.97
2018-08-21T09:41:09.154Z,24.25
2018-08-21T09:43:36.866Z,24.26
2018-08-21T09:46:04.655Z,24.90
2018-08-21T09:48:32.450Z,26.52
2018-08-21T09:51:00.312Z,26.43
2018-08-21T09:53:27.859Z,26.71
2018-08-21T09:55:55.442Z,27.08
2018-08-21T09:58:23.083Z,25.98
2018-08-21T10:00:56.182Z,26.89
2018-08-21T10:03:30.713Z,26.97
2018-08-21T10:06:01.667Z,27.57
2018-08-21T10:08:34.979Z,25.68
2018-08-21T10:11:02.511Z,25.75
2018-08-21T10:13:30.056Z,24.17
2018-08-21T10:15:57.631Z,23.67
2018-08-21T10:18:25.145Z,23.44
2018-08-21T10:20:52.685Z,23.01
2018-08-21T10:23:20.239Z,23.88
2018-08-21T10:25:47.778Z,22.65
2018-08-21T10:28:19.822Z,22.66
2018-08-21T10:30:51.756Z,24.09
2018-08-21T10:33:19.274Z,23.76
2018-08-21T10:35:51.833Z,24.17
2018-08-21T10:38:19.475Z,23.32
2018-08-21T10:40:47.001Z,24.50
2018-08-21T10:43:14.675Z,22.38
2018-08-21T10:45:42.204Z,22.07
2018-08-21T10:48:09.726Z,22.09
2018-08-21T10:50:37.375Z,20.97
2018-08-21T10:53:04.891Z,21.24
2018-08-21T10:55:32.481Z,21.56
2018-08-21T10:58:00.006Z,22.50
2018-08-21T11:00:27.538Z,23.08
2018-08-21T11:02:55.117Z,23.93
2018-08-21T11:05:22.631Z,24.82
2018-08-21T11:08:03.184Z,23.66
2018-08-21T11:10:38.422Z,24.82
2018-08-21T11:13:06.026Z,25.44
2018-08-21T11:15:33.545Z,25.40
2018-08-21T11:18:01.138Z,26.39
2018-08-21T11:20:30.807Z,27.18
2018-08-21T11:22:59.575Z,27.86
2018-08-21T11:25:27.882Z,27.88
2018-08-21T11:27:55.826Z,28.34
2018-08-21T11:30:23.951Z,28.14
2018-08-21T11:32:51.558Z,28.02
2018-08-21T11:35:19.086Z,26.90
2018-08-21T11:37:46.665Z,27.50
2018-08-21T11:40:14.514Z,27.65
2018-08-21T11:42:46.412Z,28.79
2018-08-21T11:45:15.174Z,28.37
2018-08-21T11:47:43.150Z,28.75
2018-08-21T11:50:11.247Z,27.88
2018-08-21T11:52:39.091Z,28.69
2018-08-21T11:55:07.179Z,28.51
2018-08-21T11:57:34.766Z,28.69
2018-08-21T12:00:02.735Z,28.18
2018-08-21T12:02:30.382Z,28.37
2018-08-21T12:04:57.894Z,28.47
2018-08-21T12:07:25.437Z,27.91
2018-08-21T12:09:52.967Z,28.04
2018-08-21T12:12:20.519Z,28.09
2018-08-21T12:14:48.132Z,28.83
2018-08-21T12:17:15.651Z,29.68
2018-08-21T12:19:43.189Z,28.83
2018-08-21T12:22:10.761Z,29.61
2018-08-21T12:24:38.631Z,28.70
2018-08-21T12:27:06.173Z,28.37
2018-08-21T12:29:34.008Z,28.67
2018-08-21T12:32:02.104Z,29.98
2018-08-21T12:34:29.675Z,29.62
2018-08-21T12:36:57.943Z,29.27
2018-08-21T12:39:25.487Z,29.53
2018-08-21T12:41:53.022Z,29.45
2018-08-21T12:44:20.582Z,29.49
2018-08-21T12:46:48.107Z,30.90
2018-08-21T12:49:15.649Z,31.32
2018-08-21T12:51:43.202Z,30.88
2018-08-21T12:54:10.755Z,30.14
2018-08-21T12:56:38.294Z,29.38
2018-08-21T12:59:05.843Z,29.76
2018-08-21T13:01:33.373Z,29.04
2018-08-21T13:04:01.046Z,29.66
2018-08-21T13:06:28.535Z,29.72
2018-08-21T13:08:56.088Z,28.97
2018-08-21T13:11:23.606Z,29.76
2018-08-21T13:13:51.180Z,29.55
2018-08-21T13:16:19.055Z,29.89
2018-08-21T13:18:46.610Z,30.72
2018-08-21T13:21:14.195Z,30.02
2018-08-21T13:23:41.712Z,30.08
2018-08-21T13:26:09.268Z,29.68
2018-08-21T13:28:36.829Z,30.67
2018-08-21T13:31:04.352Z,30.60
2018-08-21T13:33:31.931Z,30.70
2018-08-21T13:35:59.791Z,30.99
2018-08-21T13:38:27.316Z,30.83
2018-08-21T13:40:55.011Z,30.40
2018-08-21T13:43:22.558Z,30.93
2018-08-21T13:45:50.278Z,31.69
2018-08-21T13:48:17.834Z,31.18
2018-08-21T13:50:45.383Z,31.21
2018-08-21T13:53:12.883Z,30.50
2018-08-21T13:55:40.413Z,31.17
2018-08-21T13:58:07.963Z,30.43
2018-08-21T14:00:36.071Z,30.63
2018-08-21T14:03:03.637Z,30.54
2018-08-21T14:05:31.306Z,30.18
2018-08-21T14:07:58.870Z,31.25
2018-08-21T14:10:26.407Z,32.00
2018-08-21T14:12:53.998Z,32.70
2018-08-21T14:15:21.500Z,32.15
2018-08-21T14:17:49.034Z,32.57
2018-08-21T14:20:16.575Z,31.86
2018-08-21T14:22:44.102Z,31.62
2018-08-21T14:25:11.666Z,32.40
2018-08-21T14:27:39.203Z,31.76
2018-08-21T14:30:06.949Z,31.49
2018-08-21T14:32:34.858Z,31.38
2018-08-21T14:35:02.504Z,31.12
2018-08-21T14:37:30.078Z,30.46
2018-08-21T14:39:57.635Z,30.63
2018-08-21T14:42:25.197Z,31.16
2018-08-21T14:44:52.714Z,32.04
2018-08-21T14:47:20.242Z,31.59
2018-08-21T14:49:47.786Z,31.86
2018-08-21T14:52:15.334Z,32.17
2018-08-21T14:54:42.857Z,32.28
2018-08-21T14:57:10.403Z,32.17
2018-08-21T14:59:37.944Z,32.31
2018-08-21T15:02:05.464Z,32.29
2018-08-21T15:04:33.033Z,32.41
2018-08-21T15:07:00.588Z,32.27
2018-08-21T15:09:28.155Z,32.16
2018-08-21T15:11:55.671Z,32.12
2018-08-21T15:14:23.194Z,32.43
2018-08-21T15:16:51.090Z,32.50
2018-08-21T15:19:18.626Z,32.11
2018-08-21T15:21:46.145Z,32.17
2018-08-21T15:24:13.699Z,32.06
2018-08-21T15:26:41.271Z,31.99
2018-08-21T15:29:08.857Z,31.56
2018-08-21T15:31:36.365Z,32.28
2018-08-21T15:34:03.951Z,32.78
2018-08-21T15:36:31.466Z,33.04
2018-08-21T15:38:59.105Z,33.03
2018-08-21T15:41:26.737Z,32.46
2018-08-21T15:43:54.303Z,31.77
2018-08-21T15:46:21.865Z,32.60
2018-08-21T15:48:49.434Z,32.23
2018-08-21T15:51:17.008Z,32.39
2018-08-21T15:53:44.559Z,33.20
2018-08-21T15:56:12.080Z,32.75
2018-08-21T15:58:39.677Z,32.78
2018-08-21T16:01:07.234Z,32.21
2018-08-21T16:03:34.769Z,32.52
2018-08-21T16:06:02.736Z,32.07
2018-08-21T16:08:30.361Z,32.75
2018-08-21T16:10:57.938Z,32.87
2018-08-21T16:13:25.507Z,32.84
2018-08-21T16:15:54.363Z,32.66
2018-08-21T16:18:21.992Z,33.02
2018-08-21T16:20:49.532Z,33.10
2018-08-21T16:23:17.473Z,32.87
2018-08-21T16:25:45.009Z,32.69
2018-08-21T16:28:12.761Z,32.43
2018-08-21T16:30:40.334Z,32.57
2018-08-21T16:33:07.878Z,32.92
2018-08-21T16:35:35.482Z,32.88
2018-08-21T16:38:03.035Z,33.54
2018-08-21T16:40:30.918Z,33.57
2018-08-21T16:42:58.113Z,33.16
2018-08-21T16:45:25.780Z,32.74
2018-08-21T16:47:53.425Z,33.01
2018-08-21T16:50:21.020Z,33.17
2018-08-21T16:52:48.875Z,32.76
2018-08-21T16:55:16.424Z,33.55
2018-08-21T16:57:43.952Z,33.53
2018-08-21T17:00:11.538Z,33.57
2018-08-21T17:02:39.074Z,33.24
2018-08-21T17:05:06.671Z,32.99
2018-08-21T17:07:34.415Z,33.53
2018-08-21T17:10:02.060Z,33.74
2018-08-21T17:12:29.587Z,34.41
2018-08-21T17:14:57.211Z,34.18
2018-08-21T17:17:24.877Z,33.63
2018-08-21T17:19:52.401Z,33.78
2018-08-21T17:22:19.981Z,33.88
2018-08-21T17:24:48.595Z,34.66
2018-08-21T17:27:16.118Z,34.41
2018-08-21T17:29:43.622Z,34.41
2018-08-21T17:32:11.224Z,34.82
2018-08-21T17:34:38.768Z,35.21
2018-08-21T17:37:06.606Z,34.55
2018-08-21T17:39:34.146Z,35.05
2018-08-21T17:42:01.693Z,35.44
2018-08-21T17:44:29.251Z,34.53
2018-08-21T17:46:56.867Z,34.81
2018-08-21T17:49:24.378Z,34.52
2018-08-21T17:51:51.903Z,34.88
2018-08-21T17:54:19.468Z,34.98
2018-08-21T17:56:47.341Z,35.34
2018-08-21T17:59:14.874Z,35.27
2018-08-21T18:01:42.414Z,35.46
2018-08-21T18:04:10.115Z,35.16
2018-08-21T18:06:37.670Z,35.90
2018-08-21T18:09:06.272Z,35.92
2018-08-21T18:11:33.836Z,35.78
2018-08-21T18:14:01.395Z,36.02
2018-08-21T18:16:28.982Z,36.68
2018-08-21T18:18:56.574Z,36.85
2018-08-21T18:21:24.141Z,36.91
2018-08-21T18:23:51.731Z,36.95
2018-08-21T18:26:19.306Z,37.14
2018-08-21T18:28:46.842Z,36.78
2018-08-21T18:31:14.394Z,37.12
2018-08-21T18:33:41.935Z,37.58
2018-08-21T18:36:09.494Z,37.55
2018-08-21T18:38:37.042Z,37.67
2018-08-21T18:41:04.678Z,37.64
2018-08-21T18:43:32.317Z,37.25
2018-08-21T18:45:59.934Z,37.90
2018-08-21T18:48:27.482Z,37.99
2018-08-21T18:50:55.066Z,38.76
2018-08-21T18:53:22.670Z,38.60
2018-08-21T18:55:50.226Z,38.87
2018-08-21T18:58:18.167Z,39.27
2018-08-21T19:00:45.743Z,39.10
2018-08-21T19:03:13.293Z,39.28
2018-08-21T19:05:40.858Z,39.93
2018-08-21T19:08:08.457Z,40.33
2018-08-21T19:10:36.021Z,40.28
2018-08-21T19:13:04.812Z,41.02
2018-08-21T19:15:32.343Z,40.73
2018-08-21T19:17:59.916Z,41.47
2018-08-21T19:20:27.540Z,41.79
2018-08-21T19:22:55.019Z,41.46
2018-08-21T19:25:22.591Z,41.67
2018-08-21T19:27:50.209Z,41.93
2018-08-21T19:30:17.765Z,42.16
2018-08-21T19:32:45.379Z,41.79
2018-08-21T19:35:12.913Z,42.16
2018-08-21T19:37:40.496Z,41.38
2018-08-21T19:40:08.303Z,42.03
2018-08-21T19:42:35.878Z,42.35
2018-08-21T19:45:03.915Z,42.57
2018-08-21T19:47:31.601Z,42.95
2018-08-21T19:49:59.066Z,43.28
2018-08-21T19:52:26.710Z,43.26
2018-08-21T19:54:54.313Z,43.18
2018-08-21T19:57:21.941Z,43.18
2018-08-21T19:59:50.034Z,43.91
2018-08-21T20:02:17.643Z,43.51
2018-08-21T20:04:45.289Z,42.96
2018-08-21T20:07:13.173Z,43.79
2018-08-21T20:09:40.729Z,44.17
2018-08-21T20:12:08.280Z,44.42
2018-08-21T20:14:35.845Z,44.60
2018-08-21T20:17:03.438Z,45.32
2018-08-21T20:19:31.010Z,44.84
2018-08-21T20:21:58.934Z,45.06
2018-08-21T20:24:26.625Z,45.50
2018-08-21T20:26:54.204Z,46.16
2018-08-21T20:29:21.738Z,46.72
2018-08-21T20:31:49.574Z,47.32
2018-08-21T20:34:17.178Z,46.80
2018-08-21T20:36:44.777Z,46.75
2018-08-21T20:39:12.327Z,46.73
2018-08-21T20:41:39.875Z,47.68
2018-08-21T20:44:07.440Z,46.27
2018-08-21T20:46:34.998Z,46.18
2018-08-21T20:49:02.898Z,46.41
2018-08-21T20:51:30.440Z,46.21
2018-08-21T20:53:57.991Z,46.32
2018-08-21T20:56:25.582Z,46.12
2018-08-21T20:58:53.147Z,47.15
2018-08-21T21:01:20.723Z,46.31
2018-08-21T21:03:48.275Z,45.69
2018-08-21T21:06:15.832Z,46.64
2018-08-21T21:08:43.393Z,46.19
2018-08-21T21:11:10.972Z,46.76
2018-08-21T21:13:44.189Z,46.71
2018-08-21T21:16:17.420Z,46.35
2018-08-21T21:18:50.663Z,46.60
2018-08-21T21:21:23.998Z,46.40
2018-08-21T21:23:50.978Z,45.59
2018-08-21T21:26:23.085Z,46.25
2018-08-21T21:28:50.647Z,47.35
2018-08-21T21:31:18.442Z,47.39
2018-08-21T21:33:45.990Z,47.73
2018-08-21T21:36:13.504Z,47.72
2018-08-21T21:38:41.057Z,48.38
2018-08-21T21:41:08.570Z,47.81
2018-08-21T21:43:36.101Z,48.28
2018-08-21T21:46:03.671Z,48.45
2018-08-21T21:48:31.218Z,48.94
2018-08-21T21:50:58.745Z,49.04
2018-08-21T21:53:26.301Z,48.85
2018-08-21T21:55:53.835Z,48.93
2018-08-21T21:58:21.398Z,48.96
2018-08-21T22:00:48.927Z,49.39
2018-08-21T22:03:16.441Z,48.90
2018-08-21T22:05:44.281Z,49.65
2018-08-21T22:08:11.802Z,49.35
2018-08-21T22:10:39.369Z,49.09
2018-08-21T22:13:06.938Z,49.24
2018-08-21T22:15:34.490Z,50.07
2018-08-21T22:18:02.101Z,49.84
2018-08-21T22:20:29.617Z,50.63
2018-08-21T22:22:57.162Z,50.45
2018-08-21T22:25:24.925Z,50.86
2018-08-21T22:27:52.466Z,51.58
2018-08-21T22:30:19.992Z,51.78
2018-08-21T22:32:47.811Z,52.31
2018-08-21T22:35:15.345Z,52.31
2018-08-21T22:37:42.869Z,52.32
2018-08-21T22:40:10.407Z,53.16
2018-08-21T22:42:37.934Z,52.90
2018-08-21T22:45:05.503Z,52.41
2018-08-21T22:47:33.029Z,52.45
2018-08-21T22:50:00.562Z,53.00
2018-08-21T22:52:28.119Z,52.58
2018-08-21T22:54:56.052Z,53.15
2018-08-21T22:57:23.546Z,53.85
2018-08-21T22:59:51.074Z,54.11
2018-08-21T23:02:18.660Z,53.60
2018-08-21T23:04:46.190Z,53.61
2018-08-21T23:07:14.067Z,53.76
2018-08-21T23:09:41.587Z,53.57
2018-08-21T23:12:09.154Z,53.21
2018-08-21T23:14:36.697Z,53.02
2018-08-21T23:17:04.239Z,53.29
2018-08-21T23:19:31.785Z,54.35
2018-08-21T23:21:59.503Z,53.84
2018-08-21T23:24:27.030Z,54.18
2018-08-21T23:26:54.570Z,54.71
2018-08-21T23:29:22.082Z,54.51
2018-08-21T23:31:49.642Z,55.95
2018-08-21T23:34:17.194Z,55.69
2018-08-21T23:36:44.721Z,55.54
2018-08-21T23:39:12.318Z,55.08
2018-08-21T23:41:39.821Z,54.79
2018-08-21T23:44:07.381Z,55.46
2018-08-21T23:46:34.938Z,55.74
2018-08-21T23:49:02.471Z,55.36
2018-08-21T23:51:30.080Z,55.21
2018-08-21T23:53:57.609Z,55.71
2018-08-21T23:56:25.131Z,55.71
2018-08-21T23:58:52.702Z,55.90
